Terminal Aerodrome Forecast
Issued by NWS

Home | Current Version | Previous Version | Graphics & Text | Print | Product List | Glossary On
Versions: 1 2 3 4 5 6 7 8 9 10 11 12 13 14 15 16 17 18
000
FTUS43 KABR 252100 AAB
TAFPIR
TAF AMD
KPIR 252145Z 2522/2618 36014G22KT 1SM -SN BR BKN011 OVC050
      TEMPO 2522/2524 P6SM NSW SCT010 OVC060
     FM260900 34010KT P6SM OVC025=

USA.gov is the U.S. government's official web portal to all federal, state and local government web resources and services.